Time;durP1;ratioP1;P1;durP2;ratioP2;P2;SDS_P1;SDS_P2;PMS_P1;PMS_P2;Temp;Humidity;BMP_temperature;BMP_pressure;BME280_temperature;BME280_humidity;BME280_pressure;Samples;Min_cycle;Max_cycle;Signal;HPM_P1;HPM_P2
2022/08/14 00:02:23;;;;;;;7.65;5.63;;;21.50;99.90;;;;;;5033111;28;20498;-69
2022/08/14 00:04:49;;;;;;;10.18;6.25;;;21.50;99.90;;;;;;5030416;28;20044;-69
2022/08/14 00:07:15;;;;;;;8.60;5.93;;;21.50;99.90;;;;;;5036312;28;20052;-69
2022/08/14 00:09:42;;;;;;;7.80;5.95;;;21.50;99.90;;;;;;5034977;28;20140;-69
2022/08/14 00:12:08;;;;;;;9.35;6.13;;;21.40;99.90;;;;;;5023872;28;20394;-69
2022/08/14 00:14:34;;;;;;;8.73;6.22;;;21.40;99.90;;;;;;5059337;28;20051;-69
2022/08/14 00:17:00;;;;;;;8.07;5.93;;;21.30;99.90;;;;;;5051955;28;20044;-69
2022/08/14 00:19:25;;;;;;;8.43;6.32;;;21.30;99.90;;;;;;5034984;28;20041;-69
2022/08/14 00:21:51;;;;;;;10.38;6.40;;;21.10;99.90;;;;;;5019246;28;20037;-69
2022/08/14 00:24:21;;;;;;;10.48;6.63;;;21.10;99.90;;;;;;5052561;28;20045;-69
2022/08/14 00:26:47;;;;;;;9.02;6.78;;;21.10;99.90;;;;;;5036010;28;20079;-69
2022/08/14 00:29:12;;;;;;;9.85;6.65;;;21.00;99.90;;;;;;5037640;28;20099;-69
2022/08/14 00:31:38;;;;;;;9.70;6.95;;;21.00;99.90;;;;;;5016389;28;20037;-69
2022/08/14 00:34:04;;;;;;;10.00;6.72;;;20.90;99.90;;;;;;5040069;28;20481;-69
2022/08/14 00:36:30;;;;;;;10.13;6.65;;;20.80;99.90;;;;;;5052301;28;20037;-69
2022/08/14 00:38:55;;;;;;;9.45;6.93;;;20.80;99.90;;;;;;5050552;28;20037;-69
2022/08/14 00:41:21;;;;;;;8.95;6.53;;;20.60;99.90;;;;;;5018213;28;20457;-69
2022/08/14 00:43:46;;;;;;;10.45;7.00;;;20.60;99.90;;;;;;5048520;28;20103;-69
2022/08/14 00:46:13;;;;;;;9.75;6.82;;;20.60;99.90;;;;;;5015829;28;20030;-69
2022/08/14 00:48:39;;;;;;;9.50;6.90;;;20.60;99.90;;;;;;5022108;28;20041;-69
2022/08/14 00:51:07;;;;;;;9.57;7.30;;;20.60;99.90;;;;;;5048791;28;20041;-69
2022/08/14 00:53:33;;;;;;;9.90;7.45;;;20.60;99.90;;;;;;5019242;28;20041;-69
2022/08/14 00:55:59;;;;;;;9.40;7.32;;;20.60;99.90;;;;;;5035597;28;20033;-69
2022/08/14 00:58:31;;;;;;;9.68;7.65;;;20.60;99.90;;;;;;5050372;28;20054;-69
2022/08/14 01:01:13;;;;;;;10.43;7.57;;;20.60;99.90;;;;;;5046369;28;20120;-69
2022/08/14 01:03:40;;;;;;;10.05;7.88;;;20.60;99.90;;;;;;5049240;28;20397;-69
2022/08/14 01:06:07;;;;;;;11.18;8.15;;;20.60;99.90;;;;;;5031928;28;20547;-69
2022/08/14 01:08:34;;;;;;;10.35;8.23;;;20.60;99.90;;;;;;5031752;28;20120;-69
2022/08/14 01:11:00;;;;;;;10.10;7.60;;;20.50;99.90;;;;;;5015539;28;20037;-69
2022/08/14 01:13:28;;;;;;;8.85;7.00;;;20.50;99.90;;;;;;5016857;28;21193;-69
2022/08/14 01:15:56;;;;;;;10.73;7.65;;;20.40;99.90;;;;;;5051967;28;20051;-69
2022/08/14 01:21:16;;;;;;;10.02;7.43;;;20.40;99.90;;;;;;5065447;28;20371;-69
2022/08/14 01:23:49;;;;;;;12.55;8.32;;;20.40;99.90;;;;;;5036709;28;20408;-69
2022/08/14 01:26:19;;;;;;;9.68;7.68;;;20.40;99.90;;;;;;5051716;28;20048;-69
2022/08/14 01:28:47;;;;;;;9.15;7.25;;;20.40;99.90;;;;;;5027289;28;20490;-69
2022/08/14 01:31:17;;;;;;;9.52;7.45;;;20.40;99.90;;;;;;5031275;28;20037;-69
2022/08/14 01:33:49;;;;;;;10.13;7.75;;;20.40;99.90;;;;;;5046129;28;20063;-69
2022/08/14 01:36:16;;;;;;;12.43;8.93;;;20.30;99.90;;;;;;5048419;28;20535;-69
2022/08/14 01:38:47;;;;;;;11.25;8.07;;;20.30;99.90;;;;;;5037874;28;20045;-69
2022/08/14 01:41:18;;;;;;;10.40;7.70;;;20.30;99.90;;;;;;5051909;28;20477;-69
2022/08/14 01:43:48;;;;;;;12.90;9.30;;;20.30;99.90;;;;;;5046175;28;20804;-69
2022/08/14 01:46:20;;;;;;;10.95;8.95;;;20.30;99.90;;;;;;5048291;28;20045;-69
2022/08/14 01:48:47;;;;;;;12.18;8.85;;;20.20;99.90;;;;;;5070903;28;20082;-69
2022/08/14 01:51:19;;;;;;;9.68;7.85;;;20.20;99.90;;;;;;5051450;28;20041;-69
2022/08/14 01:53:47;;;;;;;11.52;9.10;;;20.20;99.90;;;;;;5029408;28;20041;-69
2022/08/14 01:56:17;;;;;;;10.98;8.75;;;20.20;99.90;;;;;;5031821;28;20402;-69
2022/08/14 01:58:47;;;;;;;11.13;8.98;;;20.20;99.90;;;;;;5031552;28;20101;-69
2022/08/14 02:01:15;;;;;;;11.85;9.55;;;20.10;99.90;;;;;;5031618;28;20097;-69
2022/08/14 02:03:41;;;;;;;12.88;10.65;;;20.10;99.90;;;;;;5031075;28;20041;-69
2022/08/14 02:06:07;;;;;;;11.52;9.10;;;20.10;99.90;;;;;;5014940;28;20040;-69
2022/08/14 02:08:36;;;;;;;11.65;9.80;;;20.00;99.90;;;;;;5016189;28;20626;-69
2022/08/14 02:11:21;;;;;;;17.88;10.20;;;20.00;99.90;;;;;;5034337;28;20474;-69
2022/08/14 02:13:50;;;;;;;11.27;9.82;;;20.00;99.90;;;;;;5034801;28;20391;-69
2022/08/14 02:16:18;;;;;;;12.63;10.30;;;19.90;99.90;;;;;;5051420;28;20033;-69
2022/08/14 02:18:45;;;;;;;11.82;9.68;;;19.90;99.90;;;;;;5034565;28;20494;-69
2022/08/14 02:21:13;;;;;;;12.35;10.55;;;19.80;99.90;;;;;;5034732;28;20413;-69
2022/08/14 02:23:39;;;;;;;13.80;10.63;;;19.90;99.90;;;;;;5018204;28;20382;-69
2022/08/14 02:26:15;;;;;;;14.45;11.25;;;19.70;99.90;;;;;;5067943;28;20038;-69
2022/08/14 02:28:40;;;;;;;13.43;11.00;;;19.70;99.90;;;;;;5037207;28;20045;-69
2022/08/14 02:31:07;;;;;;;12.48;10.85;;;19.70;99.90;;;;;;5052049;28;20079;-69
2022/08/14 02:33:34;;;;;;;14.50;11.77;;;19.70;99.90;;;;;;5036443;28;20033;-69
2022/08/14 02:36:03;;;;;;;14.85;11.15;;;19.70;99.90;;;;;;5034045;28;20056;-69
2022/08/14 02:38:32;;;;;;;14.98;11.40;;;19.70;99.90;;;;;;5033566;28;20107;-69
2022/08/14 02:40:58;;;;;;;13.00;10.68;;;19.60;99.90;;;;;;5034567;28;20128;-69
2022/08/14 02:43:24;;;;;;;13.75;11.25;;;19.60;99.90;;;;;;5050231;28;20079;-69
2022/08/14 02:45:50;;;;;;;12.20;10.70;;;19.60;99.90;;;;;;5034181;28;20517;-69
2022/08/14 02:48:15;;;;;;;12.02;10.82;;;19.60;99.90;;;;;;5034403;28;20087;-69
2022/08/14 02:50:42;;;;;;;14.93;12.27;;;19.60;99.90;;;;;;5034375;28;20193;-69
2022/08/14 02:53:11;;;;;;;12.88;11.45;;;19.50;99.90;;;;;;5034176;28;20393;-69
2022/08/14 02:55:39;;;;;;;16.42;12.35;;;19.60;99.90;;;;;;5050951;28;20083;-69
2022/08/14 02:58:05;;;;;;;12.93;11.55;;;19.50;99.90;;;;;;5035704;28;20045;-69
2022/08/14 03:00:34;;;;;;;15.27;11.63;;;19.50;99.90;;;;;;5050879;28;20095;-69
2022/08/14 03:03:01;;;;;;;13.45;11.57;;;19.50;99.90;;;;;;5043378;28;20029;-69
2022/08/14 03:05:30;;;;;;;13.55;12.15;;;19.40;99.90;;;;;;5018136;28;20029;-69
2022/08/14 03:08:07;;;;;;;13.43;11.60;;;19.40;99.90;;;;;;5034181;28;20037;-69
2022/08/14 03:10:33;;;;;;;14.48;11.77;;;19.50;99.90;;;;;;5034271;28;20516;-69
2022/08/14 03:13:03;;;;;;;13.40;11.82;;;19.50;99.90;;;;;;5016916;28;20849;-69
2022/08/14 03:15:37;;;;;;;17.00;12.13;;;19.40;99.90;;;;;;5069036;28;20083;-69
2022/08/14 03:18:03;;;;;;;14.68;12.45;;;19.40;99.90;;;;;;5053923;28;20044;-68
2022/08/14 03:20:29;;;;;;;16.55;12.80;;;19.40;99.90;;;;;;5053369;28;20037;-69
2022/08/14 03:22:59;;;;;;;15.52;12.55;;;19.40;99.90;;;;;;5051613;28;20037;-69
2022/08/14 03:25:25;;;;;;;14.02;12.32;;;19.40;99.90;;;;;;5034230;28;20517;-69
2022/08/14 03:27:51;;;;;;;13.93;12.43;;;19.40;99.90;;;;;;5033816;28;20045;-68
2022/08/14 03:30:16;;;;;;;13.25;11.85;;;19.40;99.90;;;;;;5050293;28;20041;-69
2022/08/14 03:32:43;;;;;;;16.45;11.63;;;19.40;99.90;;;;;;5017222;28;20171;-69
2022/08/14 03:35:10;;;;;;;14.38;12.80;;;19.40;99.90;;;;;;5049814;28;20512;-69
2022/08/14 03:37:36;;;;;;;12.80;11.38;;;19.40;99.90;;;;;;5053491;28;20489;-69
2022/08/14 03:40:02;;;;;;;13.25;11.85;;;19.40;99.90;;;;;;5068595;28;20048;-70
2022/08/14 03:42:27;;;;;;;13.82;12.35;;;19.40;99.90;;;;;;5033450;28;20105;-69
2022/08/14 03:44:53;;;;;;;13.23;11.82;;;19.40;99.90;;;;;;5032377;28;20475;-69
2022/08/14 03:47:18;;;;;;;13.93;12.52;;;19.40;99.90;;;;;;5062898;28;20115;-69
2022/08/14 03:49:45;;;;;;;13.68;11.43;;;19.30;99.90;;;;;;5053348;28;20052;-69
2022/08/14 03:52:12;;;;;;;14.90;12.35;;;19.30;99.90;;;;;;5053172;28;20053;-69
2022/08/14 03:54:38;;;;;;;15.20;12.55;;;19.30;99.90;;;;;;5040540;28;20445;-69
2022/08/14 03:57:04;;;;;;;14.65;12.77;;;19.30;99.90;;;;;;5033257;28;20033;-69
2022/08/14 03:59:33;;;;;;;17.10;12.82;;;19.30;99.90;;;;;;5066820;28;20041;-69
2022/08/14 04:02:02;;;;;;;14.55;12.25;;;19.20;99.90;;;;;;5035612;28;20506;-69
2022/08/14 04:04:29;;;;;;;15.38;12.30;;;19.20;99.90;;;;;;5033102;28;20095;-69
2022/08/14 04:06:54;;;;;;;14.65;13.13;;;19.20;99.90;;;;;;5033283;28;20045;-69
2022/08/14 04:09:20;;;;;;;16.00;13.25;;;19.20;99.90;;;;;;5032928;28;20119;-69
2022/08/14 04:11:46;;;;;;;13.98;12.57;;;19.10;99.90;;;;;;5033663;28;20492;-69
2022/08/14 04:14:13;;;;;;;14.57;12.60;;;19.10;99.90;;;;;;5042856;28;20580;-69
2022/08/14 04:16:41;;;;;;;13.55;11.88;;;19.20;99.90;;;;;;5016034;28;20037;-69
2022/08/14 04:19:08;;;;;;;15.30;12.68;;;19.20;99.90;;;;;;5035798;28;20037;-69
2022/08/14 04:21:34;;;;;;;14.32;12.05;;;19.20;99.90;;;;;;5052590;28;20051;-69
2022/08/14 04:24:00;;;;;;;13.75;11.88;;;19.20;99.90;;;;;;5031787;28;20041;-69
2022/08/14 04:26:28;;;;;;;14.50;12.25;;;19.20;99.90;;;;;;5032681;28;20508;-69
2022/08/14 04:28:55;;;;;;;14.77;11.57;;;19.20;99.90;;;;;;5016136;28;20076;-69
2022/08/14 04:31:22;;;;;;;16.45;12.02;;;19.20;99.90;;;;;;5032844;28;20041;-69
2022/08/14 04:33:48;;;;;;;12.45;10.90;;;19.30;99.90;;;;;;5015571;28;20127;-69
2022/08/14 04:36:14;;;;;;;12.25;10.93;;;19.30;99.90;;;;;;5032540;28;20040;-69
2022/08/14 04:44:19;;;;;;;13.90;11.57;;;19.30;99.90;;;;;;5028127;28;20037;-69
2022/08/14 04:48:11;;;;;;;15.15;11.40;;;19.30;99.90;;;;;;5051229;28;20505;-69
2022/08/14 04:49:30;;;;;;;16.05;11.95;;;19.30;99.90;;;;;;5052293;28;20048;-69
2022/08/14 04:51:57;;;;;;;13.43;11.23;;;19.40;99.90;;;;;;5051387;28;20485;-69
2022/08/14 04:54:26;;;;;;;11.00;9.77;;;19.40;99.90;;;;;;5041605;28;20041;-69
2022/08/14 04:56:54;;;;;;;11.90;9.77;;;19.40;99.90;;;;;;5065496;28;20045;-69
2022/08/14 04:59:21;;;;;;;12.18;9.85;;;19.50;99.90;;;;;;5049078;28;20081;-69
2022/08/14 05:01:46;;;;;;;12.20;10.02;;;19.50;99.90;;;;;;5048214;28;20553;-70
2022/08/14 05:04:12;;;;;;;14.15;9.90;;;19.60;99.90;;;;;;5026185;28;20120;-70
2022/08/14 05:06:38;;;;;;;13.52;10.32;;;19.60;99.90;;;;;;5048649;28;20040;-70
2022/08/14 05:09:05;;;;;;;10.75;9.43;;;19.60;99.90;;;;;;5048543;28;20413;-70
2022/08/14 05:11:32;;;;;;;10.57;9.43;;;19.60;99.90;;;;;;5047704;28;20512;-70
2022/08/14 05:14:00;;;;;;;12.23;9.18;;;19.60;99.90;;;;;;5027309;28;20387;-69
2022/08/14 05:16:28;;;;;;;10.30;9.20;;;19.60;99.90;;;;;;5051903;28;20072;-70
2022/08/14 05:18:54;;;;;;;10.27;8.93;;;19.60;99.90;;;;;;5051854;28;20054;-69
2022/08/14 05:21:20;;;;;;;11.65;9.70;;;19.60;99.90;;;;;;5051868;28;20049;-70
2022/08/14 05:23:46;;;;;;;13.70;10.68;;;19.60;99.90;;;;;;5050661;28;20064;-70
2022/08/14 05:26:14;;;;;;;11.82;10.55;;;19.60;99.90;;;;;;5051797;28;20071;-70
2022/08/14 05:28:45;;;;;;;12.48;11.07;;;19.60;99.90;;;;;;5051655;28;20045;-70
2022/08/14 05:31:13;;;;;;;13.70;10.88;;;19.60;99.90;;;;;;5051770;28;20048;-69
2022/08/14 05:33:39;;;;;;;14.63;12.52;;;19.60;99.90;;;;;;5067079;28;20033;-70
2022/08/14 05:36:10;;;;;;;15.82;11.95;;;19.60;99.90;;;;;;5051891;28;20044;-69
2022/08/14 05:38:39;;;;;;;14.90;13.23;;;19.70;99.90;;;;;;5047298;28;20095;-70
2022/08/14 05:41:07;;;;;;;13.82;12.35;;;19.70;99.90;;;;;;5015354;28;20049;-70
2022/08/14 05:43:33;;;;;;;16.05;14.07;;;19.60;99.90;;;;;;5038573;28;20053;-69
2022/08/14 05:46:00;;;;;;;15.13;13.45;;;19.70;99.90;;;;;;5020427;28;20037;-70
2022/08/14 05:48:26;;;;;;;15.40;12.93;;;19.70;99.90;;;;;;5044078;28;20038;-70
2022/08/14 05:50:55;;;;;;;15.27;13.63;;;19.70;99.90;;;;;;5035718;28;20033;-69
2022/08/14 05:53:22;;;;;;;15.82;13.30;;;19.80;99.90;;;;;;5044578;28;20040;-70
2022/08/14 05:55:48;;;;;;;15.07;12.45;;;19.90;99.90;;;;;;5045344;28;20072;-70
2022/08/14 05:58:14;;;;;;;13.60;11.80;;;20.00;99.90;;;;;;5043258;28;20068;-69
2022/08/14 06:00:42;;;;;;;14.90;12.35;;;20.10;99.90;;;;;;5037725;28;20041;-70
2022/08/14 06:03:10;;;;;;;15.05;12.48;;;20.20;99.90;;;;;;5034456;28;20050;-69
2022/08/14 06:05:36;;;;;;;14.30;12.48;;;20.30;99.90;;;;;;5054810;28;20049;-69
2022/08/14 06:08:02;;;;;;;14.05;12.55;;;20.40;99.90;;;;;;5071414;28;20033;-69
2022/08/14 06:10:29;;;;;;;14.23;11.75;;;20.50;99.90;;;;;;5045947;28;20037;-69
2022/08/14 06:12:57;;;;;;;14.43;11.43;;;20.60;99.90;;;;;;5063063;28;20080;-69
2022/08/14 06:15:22;;;;;;;14.40;10.98;;;20.70;99.90;;;;;;5034971;28;20037;-69
2022/08/14 06:17:50;;;;;;;12.45;10.02;;;20.80;99.90;;;;;;5044717;28;20500;-70
2022/08/14 06:20:17;;;;;;;14.40;11.40;;;20.90;99.90;;;;;;5036167;28;20524;-70
2022/08/14 06:22:45;;;;;;;13.15;10.90;;;21.10;99.90;;;;;;5039713;28;20053;-70
2022/08/14 06:25:12;;;;;;;13.13;10.32;;;21.20;99.90;;;;;;5053418;28;20053;-69
2022/08/14 06:27:41;;;;;;;12.25;9.52;;;21.30;99.90;;;;;;5038206;28;20448;-70
2022/08/14 06:30:09;;;;;;;13.57;10.65;;;21.40;99.90;;;;;;5038286;28;20040;-69
2022/08/14 06:32:36;;;;;;;12.43;9.88;;;21.50;99.90;;;;;;5051802;28;20516;-69
2022/08/14 06:35:05;;;;;;;12.77;10.05;;;21.70;99.90;;;;;;5045684;28;20040;-69
2022/08/14 06:37:44;;;;;;;13.73;10.18;;;21.80;99.90;;;;;;5048638;28;20115;-70
2022/08/14 06:40:11;;;;;;;12.38;10.68;;;21.90;99.90;;;;;;5051063;28;20409;-69
2022/08/14 06:42:38;;;;;;;12.13;10.45;;;22.00;99.90;;;;;;5050260;28;20562;-69
2022/08/14 06:45:04;;;;;;;12.45;9.98;;;22.10;99.90;;;;;;5048934;28;20397;-69
2022/08/14 06:47:36;;;;;;;12.48;11.05;;;22.10;99.90;;;;;;5040508;28;20041;-70
2022/08/14 06:50:07;;;;;;;13.18;10.27;;;22.30;99.90;;;;;;5046229;28;20508;-70
2022/08/14 06:52:33;;;;;;;13.13;11.02;;;22.40;99.90;;;;;;5050641;28;20370;-69
2022/08/14 06:54:59;;;;;;;14.27;9.93;;;22.40;99.90;;;;;;5029342;28;20044;-69
2022/08/14 06:57:34;;;;;;;14.00;11.02;;;22.50;99.90;;;;;;5053900;28;20036;-69
2022/08/14 07:00:00;;;;;;;12.48;10.48;;;22.60;99.90;;;;;;5055382;28;20110;-69
2022/08/14 07:07:53;;;;;;;10.82;9.05;;;22.80;99.90;;;;;;5067401;28;20048;-69
2022/08/14 07:10:21;;;;;;;11.88;9.20;;;22.90;99.90;;;;;;5030090;28;20386;-69
2022/08/14 07:12:47;;;;;;;12.50;9.70;;;23.00;99.90;;;;;;5047973;28;20043;-69
2022/08/14 07:15:12;;;;;;;11.07;9.02;;;23.10;99.90;;;;;;5030251;28;20041;-70
2022/08/14 07:17:45;;;;;;;11.43;9.52;;;23.20;99.90;;;;;;5039051;28;20441;-69
2022/08/14 07:20:11;;;;;;;12.80;9.93;;;23.20;99.90;;;;;;5042230;28;20033;-69
2022/08/14 07:22:36;;;;;;;10.95;9.50;;;23.30;99.90;;;;;;5028526;28;20115;-69
2022/08/14 07:25:02;;;;;;;11.65;10.00;;;23.30;99.90;;;;;;5040638;28;20126;-70
2022/08/14 07:27:28;;;;;;;11.65;8.98;;;23.40;99.90;;;;;;5047550;28;20548;-70
2022/08/14 07:29:53;;;;;;;10.70;8.68;;;23.50;99.90;;;;;;5057485;28;20135;-70
2022/08/14 07:32:20;;;;;;;11.27;9.23;;;23.60;99.90;;;;;;5048308;28;20045;-70
2022/08/14 07:34:46;;;;;;;11.98;9.10;;;23.70;99.90;;;;;;5015545;28;20037;-78
2022/08/14 07:37:12;;;;;;;14.80;9.10;;;23.80;99.90;;;;;;5042438;28;20384;-71
2022/08/14 07:39:37;;;;;;;13.82;8.25;;;23.80;99.90;;;;;;5037910;28;20091;-71
2022/08/14 07:42:03;;;;;;;10.73;8.00;;;24.00;99.90;;;;;;5025944;28;20033;-71
2022/08/14 07:44:29;;;;;;;14.32;8.70;;;24.10;99.90;;;;;;5039925;28;20516;-72
2022/08/14 07:46:54;;;;;;;9.77;8.68;;;24.20;99.90;;;;;;5049272;28;21184;-71
2022/08/14 07:49:20;;;;;;;11.43;8.27;;;24.20;99.90;;;;;;5035756;28;20044;-71
2022/08/14 07:51:46;;;;;;;10.68;7.78;;;24.30;99.90;;;;;;5043511;28;20435;-71
2022/08/14 07:54:12;;;;;;;10.70;7.55;;;24.40;99.90;;;;;;5047557;28;20029;-71
2022/08/14 07:56:38;;;;;;;8.48;7.00;;;24.50;99.90;;;;;;5033893;28;20116;-71
2022/08/14 07:59:04;;;;;;;11.45;7.80;;;24.60;99.90;;;;;;5048690;28;20048;-71
2022/08/14 08:01:31;;;;;;;9.23;7.60;;;24.70;99.90;;;;;;5050618;28;20084;-71
2022/08/14 08:04:00;;;;;;;10.73;7.90;;;24.70;99.90;;;;;;5042772;28;20043;-71
2022/08/14 08:06:26;;;;;;;13.48;8.05;;;24.80;99.90;;;;;;5032054;28;20069;-71
2022/08/14 08:08:57;;;;;;;10.30;6.90;;;24.90;99.90;;;;;;5045347;28;20417;-71
2022/08/14 08:11:23;;;;;;;11.55;7.18;;;24.90;99.90;;;;;;5034128;28;20104;-71
2022/08/14 08:13:50;;;;;;;9.68;7.47;;;25.00;99.90;;;;;;5029275;28;20049;-71
2022/08/14 08:16:20;;;;;;;12.80;7.90;;;25.10;99.90;;;;;;5076435;28;20033;-71
2022/08/14 08:18:46;;;;;;;10.55;7.38;;;25.10;99.90;;;;;;5020936;28;20042;-72
2022/08/14 08:21:11;;;;;;;11.85;7.55;;;25.20;99.90;;;;;;5050611;28;20037;-72
2022/08/14 08:23:37;;;;;;;19.42;7.88;;;25.20;99.90;;;;;;5040786;28;20132;-71
2022/08/14 08:26:02;;;;;;;21.20;7.18;;;25.30;99.90;;;;;;5029639;28;20041;-72
2022/08/14 08:28:30;;;;;;;10.20;6.95;;;25.40;99.90;;;;;;5047321;28;20032;-72
2022/08/14 08:31:01;;;;;;;10.18;7.05;;;25.50;99.90;;;;;;5081036;28;20432;-72
2022/08/14 08:33:30;;;;;;;10.18;7.30;;;25.60;99.90;;;;;;5051999;28;20033;-72
2022/08/14 08:36:14;;;;;;;8.93;7.13;;;25.70;99.90;;;;;;5077623;28;20120;-72
2022/08/14 08:38:40;;;;;;;11.25;6.85;;;25.70;99.90;;;;;;5020504;28;20107;-71
2022/08/14 08:41:05;;;;;;;9.40;6.72;;;25.70;99.90;;;;;;5052153;28;20485;-72
2022/08/14 08:43:33;;;;;;;12.80;6.75;;;25.80;99.90;;;;;;5029928;28;20043;-72
2022/08/14 08:46:05;;;;;;;8.65;7.07;;;25.90;99.90;;;;;;5048088;28;20501;-72
2022/08/14 08:48:52;;;;;;;12.63;7.18;;;25.90;99.90;;;;;;5052134;28;20416;-72
2022/08/14 08:51:28;;;;;;;9.05;6.80;;;26.10;99.90;;;;;;5044165;28;20045;-72
2022/08/14 08:54:00;;;;;;;10.00;6.40;;;26.20;99.90;;;;;;5051555;28;20512;-72
2022/08/14 08:56:41;;;;;;;8.48;6.68;;;26.20;99.90;;;;;;5029917;28;20045;-72
2022/08/14 08:59:18;;;;;;;8.85;6.63;;;26.30;99.90;;;;;;5031988;28;20045;-72
2022/08/14 09:01:57;;;;;;;9.00;6.90;;;26.40;99.90;;;;;;5048668;28;20084;-72
2022/08/14 09:04:27;;;;;;;10.85;6.70;;;26.70;99.70;;;;;;5023499;28;20037;-72
2022/08/14 09:06:53;;;;;;;9.65;6.50;;;26.70;99.90;;;;;;5062076;28;20554;-72
2022/08/14 09:09:27;;;;;;;10.02;6.82;;;26.60;99.90;;;;;;5045384;28;20037;-72
2022/08/14 09:11:55;;;;;;;8.88;6.38;;;26.60;99.90;;;;;;5051539;28;20119;-72
2022/08/14 09:14:21;;;;;;;10.02;6.82;;;26.70;99.90;;;;;;5052115;28;20061;-72
2022/08/14 09:16:48;;;;;;;11.05;6.55;;;26.80;99.90;;;;;;5034937;28;20037;-72
2022/08/14 09:19:14;;;;;;;10.27;6.93;;;26.90;99.60;;;;;;5032597;28;20048;-71
2022/08/14 09:21:40;;;;;;;9.43;6.65;;;26.90;99.40;;;;;;5034308;28;20079;-72
2022/08/14 09:24:08;;;;;;;10.60;6.40;;;26.90;99.30;;;;;;5035390;28;20068;-72
2022/08/14 09:26:34;;;;;;;9.98;6.50;;;27.00;98.70;;;;;;5051259;28;20036;-72
2022/08/14 09:29:01;;;;;;;8.52;6.80;;;27.00;99.40;;;;;;5040473;28;20417;-72
2022/08/14 09:31:29;;;;;;;9.55;6.68;;;27.10;99.50;;;;;;5042699;28;20041;-72
2022/08/14 09:33:59;;;;;;;10.32;6.55;;;27.10;99.30;;;;;;5050871;28;20387;-73
2022/08/14 09:36:44;;;;;;;8.15;6.50;;;27.20;98.90;;;;;;5034092;28;20037;-72
2022/08/14 09:39:27;;;;;;;9.95;6.63;;;27.20;99.10;;;;;;5046960;28;20106;-73
2022/08/14 09:42:20;;;;;;;7.88;6.47;;;27.50;97.60;;;;;;5068461;28;20046;-72
2022/08/14 09:45:15;;;;;;;9.27;6.45;;;27.40;98.70;;;;;;5038756;28;20041;-72
2022/08/14 09:47:52;;;;;;;13.50;6.50;;;27.40;98.80;;;;;;5061345;28;20045;-72
2022/08/14 09:50:29;;;;;;;10.20;7.05;;;27.50;98.80;;;;;;5050762;28;20052;-73
2022/08/14 09:53:03;;;;;;;8.90;6.63;;;27.70;98.10;;;;;;5032040;28;20071;-72
2022/08/14 09:55:34;;;;;;;8.75;6.57;;;27.60;97.90;;;;;;5045549;28;20073;-72
2022/08/14 09:58:06;;;;;;;;;;;27.50;97.70;;;;;;5030787;28;20047;-72
2022/08/14 10:00:48;;;;;;;8.43;6.55;;;27.70;96.60;;;;;;5048786;28;19975;-72
2022/08/14 10:03:34;;;;;;;;;;;27.80;98.30;;;;;;5034474;28;20045;-72
2022/08/14 10:06:23;;;;;;;10.50;6.35;;;28.00;96.80;;;;;;5083543;28;19949;-72
2022/08/14 10:08:59;;;;;;;7.70;5.72;;;28.00;95.90;;;;;;5031672;28;20040;-72
2022/08/14 10:11:34;;;;;;;10.02;5.97;;;28.00;96.70;;;;;;5041123;28;20432;-72
2022/08/14 10:14:15;;;;;;;8.40;5.50;;;27.90;96.70;;;;;;5043662;28;20056;-72
2022/08/14 10:16:44;;;;;;;8.93;5.68;;;28.00;96.40;;;;;;5050872;28;20075;-72
2022/08/14 10:19:12;;;;;;;7.45;5.55;;;28.10;95.60;;;;;;5036732;28;20073;-72
2022/08/14 10:21:55;;;;;;;6.65;4.95;;;28.10;96.20;;;;;;5054023;28;20045;-72
2022/08/14 10:24:31;;;;;;;7.15;5.03;;;28.30;94.20;;;;;;5030196;28;20048;-72
2022/08/14 10:27:00;;;;;;;9.93;5.05;;;28.30;94.40;;;;;;5022682;28;20041;-73
2022/08/14 10:29:31;;;;;;;9.18;5.15;;;28.20;94.00;;;;;;5044229;28;20046;-72
2022/08/14 10:32:00;;;;;;;;;;;28.10;95.20;;;;;;5029106;28;20041;-73
2022/08/14 10:34:36;;;;;;;13.00;5.57;;;28.10;94.40;;;;;;5055508;28;20012;-72
2022/08/14 10:37:06;;;;;;;8.02;5.22;;;28.30;95.50;;;;;;5038525;28;20561;-73
2022/08/14 10:39:35;;;;;;;7.32;4.95;;;28.30;94.90;;;;;;5069295;28;20529;-73
2022/08/14 10:42:06;;;;;;;7.43;5.05;;;28.30;94.60;;;;;;5028725;28;20040;-73
2022/08/14 10:44:38;;;;;;;7.10;5.50;;;28.60;93.30;;;;;;5044610;28;20073;-72
2022/08/14 10:47:08;;;;;;;8.48;5.65;;;28.50;94.10;;;;;;5034912;28;20041;-73
2022/08/14 10:49:36;;;;;;;8.83;5.60;;;28.50;93.60;;;;;;5042510;28;20140;-73
2022/08/14 10:52:06;;;;;;;7.18;5.45;;;28.60;94.00;;;;;;5052557;28;20798;-74
2022/08/14 10:54:36;;;;;;;8.60;5.28;;;28.70;92.80;;;;;;5033487;28;20114;-73
2022/08/14 10:57:25;;;;;;;8.23;5.38;;;28.70;94.10;;;;;;5034256;28;20046;-73
2022/08/14 10:59:54;;;;;;;10.00;5.60;;;28.80;93.60;;;;;;5060736;28;20053;-72
2022/08/14 11:02:30;;;;;;;8.55;5.85;;;28.90;92.20;;;;;;5027768;28;20554;-73
2022/08/14 11:05:07;;;;;;;7.00;5.82;;;28.90;92.10;;;;;;5056257;28;20128;-73
2022/08/14 11:07:38;;;;;;;8.80;5.75;;;28.90;91.20;;;;;;5048135;28;20042;-73
2022/08/14 11:10:07;;;;;;;;;;;28.80;91.70;;;;;;5035069;28;20404;-73
2022/08/14 11:13:03;;;;;;;8.02;5.40;;;28.80;90.90;;;;;;5071783;28;19963;-73
2022/08/14 11:15:29;;;;;;;7.93;5.82;;;28.90;90.70;;;;;;5032527;28;20048;-74
2022/08/14 11:17:55;;;;;;;8.43;6.00;;;28.90;91.60;;;;;;5033070;28;20045;-74
2022/08/14 11:20:27;;;;;;;7.88;5.82;;;28.80;92.30;;;;;;5032361;28;20113;-74
2022/08/14 11:22:56;;;;;;;10.75;6.40;;;28.90;93.20;;;;;;5037419;28;20037;-74
2022/08/14 11:25:25;;;;;;;8.32;5.88;;;28.90;91.70;;;;;;5053827;28;20045;-74
2022/08/14 11:27:53;;;;;;;8.30;6.00;;;29.10;92.10;;;;;;5033002;28;20068;-74
2022/08/14 11:30:22;;;;;;;9.48;6.70;;;29.00;91.30;;;;;;5033389;28;20444;-74
2022/08/14 11:32:49;;;;;;;8.63;6.05;;;28.90;91.30;;;;;;5039864;28;20080;-74
2022/08/14 11:35:18;;;;;;;7.03;5.85;;;29.00;90.30;;;;;;5031804;28;20116;-74
2022/08/14 11:37:56;;;;;;;8.02;6.25;;;29.00;90.50;;;;;;5034670;28;20080;-74
2022/08/14 11:40:24;;;;;;;8.50;6.00;;;29.00;88.90;;;;;;5044041;28;20048;-74
2022/08/14 11:42:57;;;;;;;8.27;6.20;;;29.00;90.10;;;;;;5032141;28;20051;-75
2022/08/14 11:45:31;;;;;;;8.60;6.20;;;29.20;89.00;;;;;;5023636;28;20037;-74
2022/08/14 11:47:57;;;;;;;10.25;6.25;;;29.30;90.70;;;;;;5027147;28;20044;-74
2022/08/14 11:50:29;;;;;;;8.32;6.38;;;29.20;87.90;;;;;;5023450;28;20037;-75
2022/08/14 11:52:56;;;;;;;8.05;6.03;;;29.00;89.50;;;;;;5038378;28;20040;-74
2022/08/14 11:55:25;;;;;;;8.68;6.30;;;28.90;90.20;;;;;;5034153;28;20036;-75
2022/08/14 11:58:02;;;;;;;8.60;6.00;;;28.90;89.20;;;;;;5052764;28;20041;-74
2022/08/14 12:00:29;;;;;;;7.70;5.93;;;28.90;88.70;;;;;;5033529;28;20409;-74
2022/08/14 12:02:58;;;;;;;8.82;5.97;;;29.00;87.60;;;;;;5016093;28;20037;-74
2022/08/14 12:05:32;;;;;;;8.35;6.15;;;29.00;88.30;;;;;;5049136;28;20575;-74
2022/08/14 12:07:59;;;;;;;8.60;6.00;;;29.00;90.00;;;;;;5029077;28;20044;-74
2022/08/14 12:10:25;;;;;;;10.60;6.30;;;29.10;89.10;;;;;;5049536;28;20592;-74
2022/08/14 12:12:55;;;;;;;7.13;5.70;;;29.10;86.50;;;;;;5053243;28;21987;-74
2022/08/14 12:15:33;;;;;;;8.85;5.43;;;29.00;87.30;;;;;;5031257;28;20041;-74
2022/08/14 12:18:00;;;;;;;8.60;6.10;;;29.10;87.30;;;;;;5021203;28;20037;-74
2022/08/14 12:20:31;;;;;;;7.82;6.20;;;29.10;88.20;;;;;;5019286;28;20047;-73
2022/08/14 12:22:59;;;;;;;8.70;5.97;;;29.10;88.10;;;;;;5038345;28;20041;-74
2022/08/14 12:25:25;;;;;;;8.60;5.70;;;29.00;86.50;;;;;;5036744;28;20044;-74
2022/08/14 12:27:54;;;;;;;7.88;5.47;;;29.00;86.80;;;;;;5038742;28;20045;-74
2022/08/14 12:30:31;;;;;;;9.70;5.72;;;28.80;84.70;;;;;;5034174;28;20493;-74
2022/08/14 12:32:57;;;;;;;9.88;5.90;;;28.90;85.80;;;;;;5033270;28;20084;-74
2022/08/14 12:35:38;;;;;;;8.77;5.40;;;28.90;86.00;;;;;;5031846;28;20437;-74
2022/08/14 12:38:04;;;;;;;8.88;5.80;;;28.90;85.60;;;;;;5027641;28;20491;-74
2022/08/14 12:40:30;;;;;;;10.52;5.95;;;29.00;85.80;;;;;;5019873;28;20041;-73
2022/08/14 12:43:02;;;;;;;8.98;5.68;;;29.10;85.30;;;;;;5025891;28;20125;-73
2022/08/14 12:45:33;;;;;;;7.38;5.50;;;29.30;83.50;;;;;;5026158;28;20049;-74
2022/08/14 12:48:03;;;;;;;7.25;5.57;;;29.40;82.70;;;;;;5030720;28;20489;-74
2022/08/14 12:50:40;;;;;;;8.82;5.43;;;29.30;80.80;;;;;;5023545;28;20073;-74
2022/08/14 12:53:15;;;;;;;9.85;5.63;;;29.20;82.40;;;;;;5018209;28;20064;-74
2022/08/14 12:55:43;;;;;;;14.15;5.80;;;29.20;82.50;;;;;;5023315;28;20041;-73
2022/08/14 12:58:09;;;;;;;11.05;6.30;;;29.30;82.20;;;;;;5030666;28;20037;-74
2022/08/14 13:00:38;;;;;;;8.02;5.72;;;29.30;82.60;;;;;;5036060;28;20044;-72
2022/08/14 13:03:04;;;;;;;9.18;6.00;;;29.40;83.80;;;;;;5056342;28;20474;-74